TNCM/SXM METAR and TAF weather

Enter ICAO airport designator
Station Type Date Time Source
TNCM METAR 2019/05/25 09:00 UTC NOAA

TNCM 250900Z 09007KT 050V120 9999 -SHRA SCT018 BKN036 26/23 Q1014 A2996


Station Type Date Time Source
TNCM Decoded METAR 2019/05/25 09:00 UTC NOAA

Juliana Airport, Saint Maarten, Netherlands Antilles (TNCM) 18-03N 063-07W 9M
May 25, 2019 - 05:00 AM EDT / 2019.05.25 0900 UTC
Wind: from the E (090 degrees) at 8 MPH (7 KT) (direction variable):0
Visibility: greater than 7 mile(s):0
Sky conditions: mostly cloudy
Weather: light rain showers
Temperature: 78 F (26 C)
Dew Point: 73 F (23 C)
Relative Humidity: 83%
Pressure (altimeter): 29.96 in. Hg (1014 hPa)
ob: TNCM 250900Z 09007KT 050V120 9999 -SHRA SCT018 BKN036 26/23 Q1014 A2996
cycle: 9

Station Type Date Time Source
TNCM TAF 2019/05/25 06:39 UTC NOAA

TAF TNCM 250535Z 2506/2606 10010KT P6SM VCSH SCT020

Example: see airport list